Time;durP1;ratioP1;P1;durP2;ratioP2;P2;SDS_P1;SDS_P2;PMS_P1;PMS_P2;Temp;Humidity;BMP_temperature;BMP_pressure;BME280_temperature;BME280_humidity;BME280_pressure;Samples;Min_cycle;Max_cycle;Signal;HPM_P1;HPM_P2
2022/11/10 04:02:45;;;;;;;;;;;9.70;99.90;;;;;;5136217;23;19926;-67
2022/11/10 04:17:49;;;;;;;;;;;9.80;99.90;;;;;;4986257;28;19969;-66
2022/11/10 04:20:34;;;;;;;;;;;9.70;99.90;;;;;;4984256;28;19933;-66
2022/11/10 04:23:29;;;;;;;;;;;9.70;99.90;;;;;;4987167;28;19932;-66
2022/11/10 04:26:31;;;;;;;;;;;9.70;99.90;;;;;;4980946;28;19933;-66
2022/11/10 04:29:18;;;;;;;;;;;9.70;99.90;;;;;;4991665;28;19933;-66
2022/11/10 04:32:03;;;;;;;;;;;9.60;99.90;;;;;;4976652;28;20332;-66
2022/11/10 04:34:49;;;;;;;;;;;9.60;99.90;;;;;;4974587;28;20000;-66
2022/11/10 04:37:35;;;;;;;;;;;9.60;99.90;;;;;;4986751;28;20411;-66
2022/11/10 04:40:20;;;;;;;;;;;9.60;99.90;;;;;;4990661;28;19932;-66
2022/11/10 04:43:05;;;;;;;;;;;9.60;99.90;;;;;;4984013;28;19933;-64
2022/11/10 04:45:51;;;;;;;;;;;9.60;99.90;;;;;;4990328;28;20094;-66
2022/11/10 04:48:36;;;;;;;;;;;9.60;99.90;;;;;;4986659;28;20423;-66
2022/11/10 04:51:23;;;;;;;;;;;9.60;99.90;;;;;;4982650;28;19933;-66
2022/11/10 04:54:10;;;;;;;;;;;9.60;99.90;;;;;;4994848;28;20015;-66
2022/11/10 04:56:55;;;;;;;;;;;9.60;99.90;;;;;;4983759;28;19940;-66
2022/11/10 04:59:41;;;;;;;;;;;9.60;99.90;;;;;;4991961;28;19933;-66
2022/11/10 05:02:26;;;;;;;;;;;9.60;99.90;;;;;;4990283;28;19932;-66
2022/11/10 05:05:11;;;;;;;;;;;9.50;99.90;;;;;;4984287;28;20041;-66
2022/11/10 05:07:59;;;;;;;;;;;9.40;99.90;;;;;;4985408;28;19953;-66
2022/11/10 05:10:44;;;;;;;;;;;9.50;99.90;;;;;;4985862;28;19933;-67
2022/11/10 05:13:30;;;;;;;;;;;9.50;99.90;;;;;;4984180;28;19981;-67
2022/11/10 05:16:15;;;;;;;;;;;9.50;99.90;;;;;;4984405;28;20009;-65
2022/11/10 05:19:00;;;;;;;;;;;9.50;99.90;;;;;;4979298;28;20446;-66
2022/11/10 05:21:46;;;;;;;;;;;9.50;99.90;;;;;;4992494;28;19933;-68
2022/11/10 05:24:32;;;;;;;;;;;9.40;99.90;;;;;;4990487;28;20395;-67
2022/11/10 05:27:18;;;;;;;;;;;9.40;99.90;;;;;;4990502;28;20068;-67
2022/11/10 05:30:03;;;;;;;;;;;9.40;99.90;;;;;;4990797;28;19937;-67
2022/11/10 05:32:48;;;;;;;;;;;9.40;99.90;;;;;;4977920;28;19936;-67
2022/11/10 05:35:34;;;;;;;;;;;9.40;99.90;;;;;;4981332;28;19933;-67
2022/11/10 05:38:19;;;;;;;;;;;9.40;99.90;;;;;;4977741;28;19933;-67
2022/11/10 05:41:06;;;;;;;;;;;9.40;99.90;;;;;;4977691;28;19933;-67
2022/11/10 05:43:52;;;;;;;;;;;9.40;99.90;;;;;;4986013;28;20102;-66
2022/11/10 05:46:37;;;;;;;;;;;9.40;99.90;;;;;;4990475;28;19936;-69
2022/11/10 05:49:23;;;;;;;;;;;9.30;99.90;;;;;;4980357;28;20397;-69
2022/11/10 05:52:08;;;;;;;;;;;9.40;99.90;;;;;;4988583;28;20047;-69
2022/11/10 05:54:54;;;;;;;;;;;9.40;99.90;;;;;;4991470;28;19933;-66
2022/11/10 05:57:43;;;;;;;;;;;9.40;99.90;;;;;;4985683;28;20060;-69
2022/11/10 06:00:30;;;;;;;;;;;9.30;99.90;;;;;;4983212;28;19933;-67
2022/11/10 06:03:16;;;;;;;;;;;9.30;99.90;;;;;;4977586;28;19936;-67
2022/11/10 06:06:02;;;;;;;;;;;9.30;99.90;;;;;;4986651;28;19933;-67
2022/11/10 06:08:47;;;;;;;;;;;9.30;99.90;;;;;;4988027;28;19940;-66
2022/11/10 06:11:32;;;;;;;;;;;9.20;99.90;;;;;;4976087;28;19972;-66
2022/11/10 06:14:19;;;;;;;;;;;9.30;99.90;;;;;;4980077;28;19932;-66
2022/11/10 06:17:04;;;;;;;;;;;9.20;99.90;;;;;;4981692;28;19933;-66
2022/11/10 06:19:49;;;;;;;;;;;9.20;99.90;;;;;;4982061;28;20047;-67
2022/11/10 06:22:35;;;;;;;;;;;9.20;99.90;;;;;;4982649;28;20069;-67
2022/11/10 06:25:20;;;;;;;;;;;9.20;99.90;;;;;;4985457;28;19959;-68
2022/11/10 06:28:06;;;;;;;;;;;9.10;99.90;;;;;;4982459;28;20034;-67
2022/11/10 06:30:56;;;;;;;;;;;9.20;99.90;;;;;;4978573;28;20305;-67
2022/11/10 06:33:42;;;;;;;;;;;9.10;99.90;;;;;;4978464;28;19942;-68
2022/11/10 06:36:28;;;;;;;;;;;9.10;99.90;;;;;;4984122;28;19932;-66
2022/11/10 06:39:13;;;;;;;;;;;9.20;99.90;;;;;;4975122;28;19932;-66
2022/11/10 06:41:59;;;;;;;;;;;9.10;99.90;;;;;;4979219;28;20050;-66
2022/11/10 06:44:44;;;;;;;;;;;9.10;99.90;;;;;;4986578;28;19933;-66
2022/11/10 06:47:31;;;;;;;;;;;9.10;99.90;;;;;;4991236;28;20031;-67
2022/11/10 06:50:16;;;;;;;;;;;9.10;99.90;;;;;;4986855;28;20008;-67
2022/11/10 06:53:02;;;;;;;;;;;9.20;99.90;;;;;;4984775;28;20301;-66
2022/11/10 06:55:47;;;;;;;;;;;9.20;99.90;;;;;;4986430;28;19968;-68
2022/11/10 06:58:32;;;;;;;;;;;9.20;99.90;;;;;;4987054;28;19937;-68
2022/11/10 07:01:18;;;;;;;;;;;9.20;99.90;;;;;;4989253;28;19932;-69
2022/11/10 07:04:05;;;;;;;;;;;9.20;99.90;;;;;;4976956;28;20057;-67
2022/11/10 07:06:50;;;;;;;;;;;9.20;99.90;;;;;;4984596;28;20060;-67
2022/11/10 07:09:36;;;;;;;;;;;9.20;99.90;;;;;;4980419;28;19933;-68
2022/11/10 07:12:21;;;;;;;;;;;9.20;99.90;;;;;;4981177;28;19972;-67
2022/11/10 07:15:07;;;;;;;;;;;9.20;99.90;;;;;;4978420;28;19933;-67
2022/11/10 07:17:53;;;;;;;;;;;9.20;99.90;;;;;;4985868;28;19933;-67
2022/11/10 07:20:40;;;;;;;;;;;9.30;99.90;;;;;;4982330;28;20029;-68
2022/11/10 07:23:25;;;;;;;;;;;9.30;99.90;;;;;;4976244;28;20016;-67
2022/11/10 07:26:10;;;;;;;;;;;9.30;99.90;;;;;;4985166;28;20465;-67
2022/11/10 07:28:55;;;;;;;;;;;9.40;99.90;;;;;;4973714;28;20396;-67
2022/11/10 07:31:41;;;;;;;;;;;9.50;99.90;;;;;;4981044;28;19932;-67
2022/11/10 07:34:26;;;;;;;;;;;9.50;99.90;;;;;;4983541;28;19933;-67
2022/11/10 07:37:13;;;;;;;;;;;9.50;99.90;;;;;;4975277;28;20300;-67
2022/11/10 07:39:58;;;;;;;;;;;9.60;99.90;;;;;;4987035;28;20077;-67
2022/11/10 07:42:44;;;;;;;;;;;9.60;99.90;;;;;;4987110;28;19936;-67
2022/11/10 07:45:29;;;;;;;;;;;9.70;99.90;;;;;;4975790;28;19937;-67
2022/11/10 07:48:15;;;;;;;;;;;9.80;99.90;;;;;;4979967;28;19932;-67
2022/11/10 07:51:00;;;;;;;;;;;9.80;99.90;;;;;;4984358;28;19963;-67
2022/11/10 07:53:46;;;;;;;;;;;9.90;99.90;;;;;;4979237;28;19937;-67
2022/11/10 07:56:32;;;;;;;;;;;10.00;99.90;;;;;;4981392;28;20418;-67
2022/11/10 07:59:17;;;;;;;;;;;10.00;99.90;;;;;;4976434;28;19949;-67
2022/11/10 08:02:02;;;;;;;;;;;10.10;99.90;;;;;;4980112;28;19957;-67
2022/11/10 08:04:47;;;;;;;;;;;10.20;99.90;;;;;;4976887;28;19941;-67
2022/11/10 08:07:33;;;;;;;;;;;10.30;99.90;;;;;;4983988;28;19932;-67
2022/11/10 08:10:19;;;;;;;;;;;10.30;99.90;;;;;;4976623;28;19933;-67
2022/11/10 08:13:06;;;;;;;;;;;10.40;99.90;;;;;;4981840;28;19932;-67
2022/11/10 08:15:51;;;;;;;;;;;10.50;99.90;;;;;;4988563;28;20036;-67
2022/11/10 08:18:37;;;;;;;;;;;10.50;99.90;;;;;;4978097;28;20064;-66
2022/11/10 08:21:22;;;;;;;;;;;10.60;99.90;;;;;;4980597;28;19936;-67
2022/11/10 08:24:08;;;;;;;;;;;10.70;99.90;;;;;;4984196;28;20028;-67
2022/11/10 08:26:55;;;;;;;;;;;10.80;99.90;;;;;;4982668;28;19932;-68
2022/11/10 08:29:40;;;;;;;;;;;10.80;99.90;;;;;;4984227;28;20404;-67
2022/11/10 08:32:26;;;;;;;;;;;10.90;99.90;;;;;;4977923;28;19932;-68
2022/11/10 08:35:11;;;;;;;;;;;11.00;99.90;;;;;;4987689;28;19960;-64
2022/11/10 08:37:56;;;;;;;;;;;11.10;99.90;;;;;;4985087;28;20065;-65
2022/11/10 08:40:42;;;;;;;;;;;11.10;99.90;;;;;;4989031;28;20431;-66
2022/11/10 08:43:29;;;;;;;;;;;11.20;99.90;;;;;;4984647;28;19948;-64
2022/11/10 08:46:14;;;;;;;;;;;11.20;99.90;;;;;;4983722;28;19942;-66
2022/11/10 08:49:00;;;;;;;;;;;11.30;99.90;;;;;;4987654;28;19995;-65
2022/11/10 08:51:45;;;;;;;;;;;11.40;99.90;;;;;;4992414;28;19933;-65
2022/11/10 08:54:30;;;;;;;;;;;11.40;99.90;;;;;;4983626;28;19933;-65
2022/11/10 08:57:15;;;;;;;;;;;11.50;99.90;;;;;;4988205;28;19932;-65
2022/11/10 09:00:03;;;;;;;;;;;11.50;99.90;;;;;;4987197;28;19953;-66
2022/11/10 09:02:48;;;;;;;;;;;11.60;99.90;;;;;;4984772;28;20032;-65
2022/11/10 09:05:34;;;;;;;;;;;11.70;99.90;;;;;;4989770;28;19932;-65
2022/11/10 09:08:20;;;;;;;;;;;11.80;99.90;;;;;;4983547;28;20405;-65
2022/11/10 09:11:05;;;;;;;;;;;11.90;99.90;;;;;;4981953;28;19933;-65
2022/11/10 09:13:50;;;;;;;;;;;12.00;99.90;;;;;;4993138;28;19981;-65
2022/11/10 09:16:37;;;;;;;;;;;12.00;99.90;;;;;;4992325;28;20040;-65
2022/11/10 09:19:22;;;;;;;;;;;12.10;99.90;;;;;;4982954;28;19932;-65
2022/11/10 09:22:08;;;;;;;;;;;12.20;99.90;;;;;;4981397;28;20023;-65
2022/11/10 09:24:54;;;;;;;;;;;12.30;99.90;;;;;;4986391;28;19980;-64
2022/11/10 09:27:39;;;;;;;;;;;12.40;99.90;;;;;;4992644;28;19995;-67
2022/11/10 09:30:25;;;;;;;;;;;12.60;99.90;;;;;;4986168;28;19961;-68
2022/11/10 09:33:12;;;;;;;;;;;12.70;99.90;;;;;;4981685;28;19949;-67
2022/11/10 09:35:58;;;;;;;;;;;12.70;99.90;;;;;;4980389;28;19932;-67
2022/11/10 09:38:44;;;;;;;;;;;12.80;99.90;;;;;;4985542;28;19933;-67
2022/11/10 09:41:29;;;;;;;;;;;12.90;99.90;;;;;;4982710;28;20015;-67
2022/11/10 09:44:18;;;;;;;;;;;13.00;99.90;;;;;;4984661;28;19971;-67
2022/11/10 09:47:05;;;;;;;;;;;13.10;99.90;;;;;;4987716;28;20427;-67
2022/11/10 09:49:53;;;;;;;;;;;13.10;99.90;;;;;;4989794;28;19933;-68
2022/11/10 09:52:39;;;;;;;;;;;13.20;99.90;;;;;;4990600;28;20288;-68
2022/11/10 09:55:29;;;;;;;;;;;13.20;99.90;;;;;;4985841;28;20000;-67
2022/11/10 09:58:15;;;;;;;;;;;13.50;99.90;;;;;;4981749;28;19932;-67
2022/11/10 10:01:07;;;;;;;;;;;13.70;99.90;;;;;;4984280;28;19972;-68
2022/11/10 10:03:57;;;;;;;;;;;13.70;99.90;;;;;;4979144;28;19933;-67
2022/11/10 10:06:47;;;;;;;;;;;13.90;99.90;;;;;;4982403;28;20396;-67
2022/11/10 10:09:38;;;;;;;;;;;13.90;99.90;;;;;;4981052;28;19937;-67
2022/11/10 10:12:30;;;;;;;;;;;13.80;99.90;;;;;;4985189;28;20468;-67
2022/11/10 10:15:21;;;;;;;;;;;14.10;99.90;;;;;;4981583;28;19932;-68
2022/11/10 10:18:18;;;;;;;;;;;16.90;99.90;;;;;;4983341;28;19932;-67
2022/11/10 10:21:12;;;;;;;;;;;19.60;99.90;;;;;;4978201;28;19932;-68
2022/11/10 10:24:01;;;;;;;;;;;20.30;99.90;;;;;;4988836;28;20397;-67
2022/11/10 10:26:49;;;;;;;;;;;22.30;99.90;;;;;;4983454;28;19974;-67
2022/11/10 10:29:37;;;;;;;;;;;22.80;99.90;;;;;;4975270;28;19937;-67
2022/11/10 10:32:23;;;;;;;;;;;22.20;99.90;;;;;;4978918;28;20056;-68
2022/11/10 10:35:12;;;;;;;;;;;22.70;99.90;;;;;;4974924;28;20440;-68
2022/11/10 10:37:57;;;;;;;;;;;23.70;99.90;;;;;;4982239;28;20309;-68
2022/11/10 10:40:45;;;;;;;;;;;26.20;99.90;;;;;;4989791;28;19932;-66
2022/11/10 10:43:32;;;;;;;;;;;25.50;99.90;;;;;;4977640;28;19933;-68
2022/11/10 10:46:19;;;;;;;;;;;25.70;99.90;;;;;;4986396;28;19933;-68
2022/11/10 10:49:12;;;;;;;;;;;24.30;99.90;;;;;;4984298;28;20060;-68
2022/11/10 10:52:04;;;;;;;;;;;26.60;99.90;;;;;;4986114;28;19932;-67
2022/11/10 10:54:59;;;;;;;;;;;26.60;99.90;;;;;;4981533;28;20052;-67
2022/11/10 10:57:51;;;;;;;;;;;25.10;99.90;;;;;;4980524;28;20028;-69
2022/11/10 11:00:42;;;;;;;;;;;26.30;99.90;;;;;;4982500;28;19936;-68
2022/11/10 11:03:29;;;;;;;;;;;25.90;99.90;;;;;;4983497;28;20073;-68
2022/11/10 11:06:18;;;;;;;;;;;27.10;99.90;;;;;;4985512;28;19937;-68
2022/11/10 11:09:07;;;;;;;;;;;27.90;99.90;;;;;;4977427;28;19937;-68
2022/11/10 11:12:00;;;;;;;;;;;26.80;99.90;;;;;;4987719;28;20304;-68
2022/11/10 11:14:46;;;;;;;;;;;27.90;99.90;;;;;;4978364;28;19933;-68
2022/11/10 11:17:32;;;;;;;;;;;26.20;99.90;;;;;;4974627;28;19952;-68
2022/11/10 11:20:17;;;;;;;;;;;26.00;99.90;;;;;;4980675;28;19933;-68
2022/11/10 11:23:07;;;;;;;;;;;25.50;99.90;;;;;;4980905;28;20003;-68
2022/11/10 11:25:54;;;;;;;;;;;25.20;99.90;;;;;;4986602;28;20024;-68
2022/11/10 11:28:45;;;;;;;;;;;24.40;99.90;;;;;;4989393;28;20068;-69
2022/11/10 11:31:38;;;;;;;;;;;26.10;99.90;;;;;;4981935;28;19933;-69
2022/11/10 11:34:27;;;;;;;;;;;27.90;99.90;;;;;;4981071;28;19936;-68
2022/11/10 11:37:17;;;;;;;;;;;27.50;99.90;;;;;;4986321;28;19932;-69
2022/11/10 11:40:11;;;;;;;;;;;27.40;99.90;;;;;;4990467;28;20031;-69
2022/11/10 11:43:04;;;;;;;;;;;27.00;99.90;;;;;;4976821;28;19933;-68
2022/11/10 11:45:53;;;;;;;;;;;24.90;99.90;;;;;;4983279;28;20415;-68
2022/11/10 11:48:47;;;;;;;;;;;25.50;99.90;;;;;;4983286;28;19948;-68
2022/11/10 11:51:35;;;;;;;;;;;25.80;99.90;;;;;;4980143;28;20083;-65
2022/11/10 11:54:27;;;;;;;;;;;27.30;99.90;;;;;;4985577;28;19940;-67
2022/11/10 11:57:16;;;;;;;;;;;27.90;99.90;;;;;;4978519;28;20289;-69
2022/11/10 12:00:09;;;;;;;;;;;27.00;99.90;;;;;;4973143;28;19937;-66
2022/11/10 12:03:11;;;;;;;;;;;27.00;99.90;;;;;;4980590;28;19968;-66
2022/11/10 12:06:04;;;;;;;;;;;26.50;99.90;;;;;;4982211;28;19941;-65
2022/11/10 12:08:55;;;;;;;;;;;25.00;99.90;;;;;;4976077;28;19933;-64
2022/11/10 12:11:50;;;;;;;;;;;25.50;99.90;;;;;;4981494;28;19933;-66
2022/11/10 12:14:44;;;;;;;;;;;25.10;99.90;;;;;;4979957;28;20011;-64
2022/11/10 12:17:34;;;;;;;;;;;25.60;99.90;;;;;;4975958;28;19933;-66
2022/11/10 12:20:24;;;;;;;;;;;24.60;99.90;;;;;;4978823;28;20459;-66
2022/11/10 12:23:14;;;;;;;;;;;24.40;99.90;;;;;;4981569;28;20027;-66
2022/11/10 12:26:05;;;;;;;;;;;25.70;99.90;;;;;;4976169;28;19932;-66
2022/11/10 12:28:53;;;;;;;;;;;24.80;99.90;;;;;;4985635;28;19956;-67
2022/11/10 12:31:40;;;;;;;;;;;25.30;99.90;;;;;;4980824;28;19992;-67
2022/11/10 12:34:30;;;;;;;;;;;24.30;99.90;;;;;;4979677;28;19936;-66
2022/11/10 12:37:17;;;;;;;;;;;24.20;99.90;;;;;;4978869;28;19936;-66
2022/11/10 12:40:11;;;;;;;;;;;25.00;99.90;;;;;;4987150;28;20065;-65
2022/11/10 12:42:59;;;;;;;;;;;25.30;99.90;;;;;;4979260;28;19940;-66
2022/11/10 12:45:46;;;;;;;;;;;26.10;99.90;;;;;;4983374;28;19950;-66
2022/11/10 12:48:42;;;;;;;;;;;25.20;99.90;;;;;;4983060;28;19933;-66
2022/11/10 12:51:31;;;;;;;;;;;24.70;99.90;;;;;;4980623;28;19932;-65
2022/11/10 12:54:17;;;;;;;;;;;23.90;99.90;;;;;;4984395;28;19935;-66
2022/11/10 12:57:06;;;;;;;;;;;23.30;99.90;;;;;;4985524;28;19933;-66
2022/11/10 12:59:54;;;;;;;;;;;24.70;99.90;;;;;;4986512;28;19976;-66
2022/11/10 13:02:40;;;;;;;;;;;25.90;99.90;;;;;;4977822;28;20053;-65
2022/11/10 13:05:28;;;;;;;;;;;24.90;99.90;;;;;;4979191;28;19933;-65
2022/11/10 13:08:18;;;;;;;;;;;25.80;99.90;;;;;;4984918;28;19933;-66
2022/11/10 13:11:06;;;;;;;;;;;25.10;99.90;;;;;;4977209;28;20420;-66
2022/11/10 13:13:54;;;;;;;;;;;26.00;99.90;;;;;;4982019;28;20032;-66
2022/11/10 13:16:48;;;;;;;;;;;25.50;99.90;;;;;;4978894;28;20419;-66
2022/11/10 13:19:52;;;;;;;;;;;25.50;99.90;;;;;;4982472;28;19937;-66
2022/11/10 13:22:39;;;;;;;;;;;23.40;99.90;;;;;;4978006;28;20462;-66
2022/11/10 13:25:43;;;;;;;;;;;23.60;99.90;;;;;;4981268;28;19937;-66
2022/11/10 13:28:47;;;;;;;;;;;23.10;99.90;;;;;;4982753;28;19932;-66
2022/11/10 13:31:48;;;;;;;;;;;22.60;99.90;;;;;;4983518;28;20301;-66
2022/11/10 13:34:34;;;;;;;;;;;22.70;99.90;;;;;;4984169;28;19933;-66
2022/11/10 13:37:38;;;;;;;;;;;22.70;99.90;;;;;;4981213;28;19934;-66
2022/11/10 13:40:29;;;;;;;;;;;22.10;99.90;;;;;;4981951;28;19940;-67
2022/11/10 13:43:21;;;;;;;;;;;21.70;99.90;;;;;;4985124;28;19953;-67
2022/11/10 13:46:07;;;;;;;;;;;21.00;99.90;;;;;;4986533;28;19932;-66
2022/11/10 13:49:05;;;;;;;;;;;20.10;99.90;;;;;;4981960;28;19936;-67
2022/11/10 13:51:54;;;;;;;;;;;20.90;99.90;;;;;;4984331;28;19952;-65
2022/11/10 13:55:00;;;;;;;;;;;20.80;99.90;;;;;;4990186;28;19933;-67
2022/11/10 13:57:55;;;;;;;;;;;20.60;99.90;;;;;;4984261;28;19992;-64
2022/11/10 14:00:41;;;;;;;;;;;20.50;99.90;;;;;;4987779;28;19948;-65
2022/11/10 14:03:41;;;;;;;;;;;20.70;99.90;;;;;;4987417;28;19936;-65
2022/11/10 14:06:30;;;;;;;;;;;21.80;99.90;;;;;;4990060;28;20332;-66
2022/11/10 14:09:20;;;;;;;;;;;22.60;99.90;;;;;;4978390;28;19937;-67
2022/11/10 14:12:07;;;;;;;;;;;22.00;99.90;;;;;;4980050;28;19952;-65
2022/11/10 14:14:54;;;;;;;;;;;22.10;99.90;;;;;;4986801;28;19933;-66
2022/11/10 14:17:41;;;;;;;;;;;22.20;99.90;;;;;;4990605;28;19933;-65
2022/11/10 14:20:29;;;;;;;;;;;21.80;99.90;;;;;;4987977;28;19932;-66
2022/11/10 14:23:20;;;;;;;;;;;20.30;99.90;;;;;;4982688;28;19933;-65
2022/11/10 14:26:07;;;;;;;;;;;19.60;99.90;;;;;;4984999;28;20064;-65
2022/11/10 14:28:52;;;;;;;;;;;19.20;99.90;;;;;;4988332;28;19948;-67
2022/11/10 14:31:38;;;;;;;;;;;18.70;99.90;;;;;;4982205;28;19933;-66
2022/11/10 14:34:23;;;;;;;;;;;18.30;99.90;;;;;;4975710;28;19941;-65
2022/11/10 14:37:14;;;;;;;;;;;17.80;99.90;;;;;;4976801;28;20452;-65
2022/11/10 14:40:01;;;;;;;;;;;17.50;99.90;;;;;;4991431;28;19932;-66
2022/11/10 14:42:47;;;;;;;;;;;16.90;99.90;;;;;;4977069;28;20093;-66
2022/11/10 14:45:32;;;;;;;;;;;16.40;99.90;;;;;;4981342;28;19952;-63
2022/11/10 14:48:19;;;;;;;;;;;16.00;99.90;;;;;;4980057;28;19981;-66
2022/11/10 14:51:06;;;;;;;;;;;16.00;99.90;;;;;;4984163;28;20064;-65
2022/11/10 14:53:53;;;;;;;;;;;15.70;99.90;;;;;;4981083;28;19933;-66
2022/11/10 14:56:41;;;;;;;;;;;15.30;99.90;;;;;;4982222;28;20061;-67
2022/11/10 14:59:26;;;;;;;;;;;15.30;99.90;;;;;;4986196;28;19933;-69
2022/11/10 15:02:14;;;;;;;;;;;15.20;99.90;;;;;;4977306;28;19958;-68
2022/11/10 15:05:01;;;;;;;;;;;15.20;99.90;;;;;;4976146;28;19933;-68
2022/11/10 15:07:47;;;;;;;;;;;15.10;99.90;;;;;;4988390;28;20471;-67
2022/11/10 15:10:43;;;;;;;;;;;15.00;99.90;;;;;;4980936;28;20501;-67
2022/11/10 15:13:38;;;;;;;;;;;14.90;99.90;;;;;;4982279;28;19937;-65
2022/11/10 15:16:25;;;;;;;;;;;14.70;99.90;;;;;;4985608;28;20280;-65
2022/11/10 15:19:20;;;;;;;;;;;14.60;99.90;;;;;;4984190;28;19932;-65
2022/11/10 15:22:07;;;;;;;;;;;14.50;99.90;;;;;;4973667;28;20435;-65
2022/11/10 15:24:53;;;;;;;;;;;14.50;99.90;;;;;;4988416;28;20066;-67
2022/11/10 15:27:38;;;;;;;;;;;14.40;99.90;;;;;;4980328;28;20391;-67
2022/11/10 15:30:25;;;;;;;;;;;14.30;99.90;;;;;;4974884;28;19949;-67
2022/11/10 15:33:11;;;;;;;;;;;14.20;99.90;;;;;;4983341;28;19933;-65
2022/11/10 15:36:12;;;;;;;;;;;14.20;99.90;;;;;;4979794;28;19953;-67
2022/11/10 15:39:02;;;;;;;;;;;14.10;99.90;;;;;;4982970;28;19936;-67
2022/11/10 15:41:48;;;;;;;;;;;14.00;99.90;;;;;;4982828;28;19941;-67
2022/11/10 15:44:33;;;;;;;;;;;14.00;99.90;;;;;;4983004;28;19932;-67
2022/11/10 15:47:20;;;;;;;;;;;13.90;99.90;;;;;;4985583;28;20519;-67
